DLH1E EDDH-EDDM
Flight info
| Callsign | DLH1E |
|---|---|
| Flight time | 0h 59m |
| Altitude | 35000 |
| Route | AMLUH2G AMLUH M852 DENIX DCT ZUCKA DCT SODRO/N0449F310 T703 LULAR/N0448F300 T105 LANDU LANDU2B |
| Aircraft | A321/M-SDE3FGHIRWY/LB1 |
Departure
| Time | 2026-05-06 16:00 |
|---|---|
| Airport | Hamburg Helmut Schmidt Airport (EDDH) |
Arrival
| Time | 2026-05-06 16:59 |
|---|---|
| Airport | Munich Airport (EDDM) |
| Time | Latitude | Longitude | Altitude | Speed | Heading |
|---|---|---|---|---|---|
| 2026-05-06 15:21 | 53.63074 | 10.00371 | 49 ft | 0 kts | 94° |
| 2026-05-06 15:22 | 53.63074 | 10.00380 | 49 ft | 0 kts | 93° |
| 2026-05-06 15:48 | 53.63074 | 10.00355 | 48 ft | 4 kts | 93° |
| 2026-05-06 15:48 | 53.63076 | 10.00318 | 48 ft | 4 kts | 95° |
| 2026-05-06 15:48 | 53.63083 | 10.00278 | 47 ft | 4 kts | 135° |
| 2026-05-06 15:48 | 53.63103 | 10.00260 | 46 ft | 2 kts | 175° |
| 2026-05-06 15:49 | 53.63105 | 10.00260 | 46 ft | 0 kts | 176° |
| 2026-05-06 15:51 | 53.63104 | 10.00260 | 46 ft | 1 kts | 176° |
| 2026-05-06 15:52 | 53.63093 | 10.00261 | 43 ft | 2 kts | 176° |
| 2026-05-06 15:52 | 53.63072 | 10.00258 | 47 ft | 4 kts | 193° |
| 2026-05-06 15:52 | 53.63044 | 10.00235 | 48 ft | 5 kts | 210° |
| 2026-05-06 15:52 | 53.63008 | 10.00198 | 48 ft | 7 kts | 212° |
| 2026-05-06 15:53 | 53.62965 | 10.00152 | 46 ft | 8 kts | 213° |
| 2026-05-06 15:53 | 53.62917 | 10.00100 | 48 ft | 6 kts | 212° |
| 2026-05-06 15:53 | 53.62900 | 10.00081 | 48 ft | 1 kts | 213° |
| 2026-05-06 15:53 | 53.62889 | 10.00068 | 46 ft | 0 kts | 215° |
| 2026-05-06 15:54 | 53.62886 | 10.00065 | 46 ft | 1 kts | 215° |
| 2026-05-06 15:55 | 53.62875 | 10.00048 | 47 ft | 3 kts | 226° |
| 2026-05-06 15:55 | 53.62862 | 10.00012 | 48 ft | 4 kts | 241° |
| 2026-05-06 15:55 | 53.62847 | 9.99967 | 48 ft | 3 kts | 242° |
| 2026-05-06 15:55 | 53.62846 | 9.99963 | 48 ft | 0 kts | 243° |
| 2026-05-06 15:56 | 53.62845 | 9.99960 | 45 ft | 1 kts | 243° |
| 2026-05-06 15:57 | 53.62835 | 9.99926 | 47 ft | 5 kts | 242° |
| 2026-05-06 15:57 | 53.62814 | 9.99855 | 45 ft | 8 kts | 245° |
| 2026-05-06 15:57 | 53.62832 | 9.99777 | 45 ft | 8 kts | 329° |
| 2026-05-06 15:57 | 53.62843 | 9.99767 | 45 ft | 0 kts | 331° |
| 2026-05-06 15:58 | 53.62844 | 9.99767 | 45 ft | 1 kts | 331° |
| 2026-05-06 15:59 | 53.62911 | 9.99708 | 45 ft | 39 kts | 333° |
| 2026-05-06 15:59 | 53.63384 | 9.99304 | 47 ft | 111 kts | 333° |
| 2026-05-06 15:59 | 53.64253 | 9.98549 | 55 ft | 167 kts | 333° |
| 2026-05-06 15:59 | 53.65335 | 9.97628 | 584 ft | 175 kts | 336° |
| 2026-05-06 16:00 | 53.66422 | 9.96710 | 1349 ft | 177 kts | 338° |
| 2026-05-06 16:00 | 53.67589 | 9.95728 | 1703 ft | 197 kts | 340° |
| 2026-05-06 16:00 | 53.68893 | 9.94852 | 2172 ft | 202 kts | 353° |
| 2026-05-06 16:00 | 53.70270 | 9.94760 | 2747 ft | 201 kts | 7° |
| 2026-05-06 16:01 | 53.71673 | 9.94848 | 3445 ft | 203 kts | 9° |
| 2026-05-06 16:01 | 53.72982 | 9.95625 | 4021 ft | 203 kts | 40° |
| 2026-05-06 16:01 | 53.73823 | 9.97554 | 4620 ft | 205 kts | 70° |
| 2026-05-06 16:01 | 53.74077 | 9.99949 | 5228 ft | 210 kts | 81° |
| 2026-05-06 16:02 | 53.74175 | 10.02411 | 5843 ft | 217 kts | 93° |
| 2026-05-06 16:02 | 53.73789 | 10.04929 | 6376 ft | 233 kts | 114° |
| 2026-05-06 16:02 | 53.72958 | 10.07450 | 6642 ft | 257 kts | 117° |
| 2026-05-06 16:02 | 53.72043 | 10.10148 | 7102 ft | 270 kts | 117° |
| 2026-05-06 16:03 | 53.71107 | 10.12916 | 7804 ft | 273 kts | 117° |
| 2026-05-06 16:03 | 53.70166 | 10.15709 | 8541 ft | 275 kts | 118° |
| 2026-05-06 16:03 | 53.69081 | 10.18403 | 9232 ft | 281 kts | 130° |
| 2026-05-06 16:03 | 53.67572 | 10.20516 | 9904 ft | 286 kts | 148° |
| 2026-05-06 16:04 | 53.65711 | 10.21864 | 10303 ft | 302 kts | 162° |
| 2026-05-06 16:04 | 53.63612 | 10.22837 | 10424 ft | 324 kts | 164° |
| 2026-05-06 16:04 | 53.61363 | 10.23854 | 10557 ft | 344 kts | 163° |
| 2026-05-06 16:04 | 53.58999 | 10.24919 | 10803 ft | 358 kts | 164° |
| 2026-05-06 16:05 | 53.56577 | 10.26015 | 11323 ft | 362 kts | 164° |
| 2026-05-06 16:05 | 53.54137 | 10.27126 | 11959 ft | 363 kts | 164° |
| 2026-05-06 16:05 | 53.51699 | 10.28236 | 12659 ft | 363 kts | 164° |
| 2026-05-06 16:05 | 53.49256 | 10.29348 | 13270 ft | 365 kts | 165° |
| 2026-05-06 16:06 | 53.46792 | 10.30472 | 13801 ft | 369 kts | 165° |
| 2026-05-06 16:06 | 53.44310 | 10.31607 | 14310 ft | 371 kts | 165° |
| 2026-05-06 16:06 | 53.41807 | 10.32749 | 14780 ft | 375 kts | 165° |
| 2026-05-06 16:06 | 53.39272 | 10.33892 | 15270 ft | 379 kts | 167° |
| 2026-05-06 16:07 | 53.36719 | 10.35035 | 15835 ft | 381 kts | 167° |
| 2026-05-06 16:07 | 53.34155 | 10.36185 | 16366 ft | 383 kts | 167° |
| 2026-05-06 16:07 | 53.31566 | 10.37344 | 16852 ft | 386 kts | 167° |
| 2026-05-06 16:07 | 53.28964 | 10.38508 | 17317 ft | 388 kts | 167° |
| 2026-05-06 16:08 | 53.26377 | 10.39664 | 17737 ft | 392 kts | 167° |
| 2026-05-06 16:08 | 53.23732 | 10.40843 | 18172 ft | 395 kts | 167° |
| 2026-05-06 16:08 | 53.21030 | 10.42048 | 18562 ft | 398 kts | 167° |
| 2026-05-06 16:08 | 53.18384 | 10.43231 | 18953 ft | 400 kts | 167° |
| 2026-05-06 16:09 | 53.15685 | 10.44439 | 19355 ft | 403 kts | 167° |
| 2026-05-06 16:09 | 53.12969 | 10.45646 | 19749 ft | 405 kts | 167° |
| 2026-05-06 16:09 | 53.10182 | 10.46730 | 20160 ft | 407 kts | 169° |
| 2026-05-06 16:09 | 53.07435 | 10.47630 | 20554 ft | 409 kts | 171° |
| 2026-05-06 16:10 | 53.04624 | 10.48456 | 20959 ft | 412 kts | 172° |
| 2026-05-06 16:10 | 53.01789 | 10.49255 | 21360 ft | 414 kts | 172° |
| 2026-05-06 16:10 | 52.98945 | 10.50064 | 21759 ft | 416 kts | 171° |
| 2026-05-06 16:10 | 52.96083 | 10.50902 | 22141 ft | 419 kts | 171° |
| 2026-05-06 16:11 | 52.93211 | 10.51770 | 22541 ft | 421 kts | 171° |
| 2026-05-06 16:11 | 52.90326 | 10.52663 | 22906 ft | 423 kts | 170° |
| 2026-05-06 16:11 | 52.87423 | 10.53573 | 23299 ft | 425 kts | 170° |
| 2026-05-06 16:11 | 52.84514 | 10.54486 | 23646 ft | 427 kts | 170° |
| 2026-05-06 16:12 | 52.81587 | 10.55399 | 23965 ft | 429 kts | 170° |
| 2026-05-06 16:12 | 52.78647 | 10.56310 | 24276 ft | 431 kts | 170° |
| 2026-05-06 16:12 | 52.75689 | 10.57217 | 24572 ft | 434 kts | 171° |
| 2026-05-06 16:12 | 52.72715 | 10.58127 | 24850 ft | 437 kts | 171° |
| 2026-05-06 16:13 | 52.69720 | 10.59042 | 25183 ft | 439 kts | 172° |
| 2026-05-06 16:13 | 52.66718 | 10.59955 | 25591 ft | 438 kts | 171° |
| 2026-05-06 16:13 | 52.63717 | 10.60871 | 25973 ft | 439 kts | 171° |
| 2026-05-06 16:13 | 52.60711 | 10.61791 | 26289 ft | 440 kts | 171° |
| 2026-05-06 16:14 | 52.57690 | 10.62715 | 26576 ft | 442 kts | 171° |
| 2026-05-06 16:14 | 52.54657 | 10.63639 | 26842 ft | 443 kts | 171° |
| 2026-05-06 16:14 | 52.51622 | 10.64564 | 27113 ft | 444 kts | 172° |
| 2026-05-06 16:14 | 52.48582 | 10.65492 | 27435 ft | 444 kts | 172° |
| 2026-05-06 16:15 | 52.45543 | 10.66416 | 27694 ft | 445 kts | 172° |
| 2026-05-06 16:15 | 52.42501 | 10.67339 | 27985 ft | 444 kts | 172° |
| 2026-05-06 16:15 | 52.39466 | 10.68257 | 28362 ft | 443 kts | 172° |
| 2026-05-06 16:15 | 52.36434 | 10.69166 | 28725 ft | 442 kts | 172° |
| 2026-05-06 16:16 | 52.33417 | 10.70067 | 29071 ft | 441 kts | 172° |
| 2026-05-06 16:16 | 52.30403 | 10.70969 | 29409 ft | 440 kts | 172° |
| 2026-05-06 16:16 | 52.27400 | 10.71871 | 29738 ft | 439 kts | 173° |
| 2026-05-06 16:16 | 52.24405 | 10.72771 | 30102 ft | 436 kts | 173° |
| 2026-05-06 16:17 | 52.21427 | 10.73664 | 30401 ft | 434 kts | 173° |
| 2026-05-06 16:17 | 52.18455 | 10.74551 | 30661 ft | 434 kts | 173° |
| 2026-05-06 16:17 | 52.15484 | 10.75436 | 30918 ft | 434 kts | 173° |
| 2026-05-06 16:17 | 52.12515 | 10.76324 | 31168 ft | 434 kts | 173° |
| 2026-05-06 16:18 | 52.09543 | 10.77214 | 31412 ft | 434 kts | 173° |
| 2026-05-06 16:18 | 52.06578 | 10.78102 | 31657 ft | 434 kts | 173° |
| 2026-05-06 16:18 | 52.03608 | 10.78990 | 31898 ft | 434 kts | 173° |
| 2026-05-06 16:18 | 52.00648 | 10.79869 | 32149 ft | 432 kts | 173° |
| 2026-05-06 16:19 | 51.97687 | 10.80744 | 32422 ft | 432 kts | 173° |
| 2026-05-06 16:19 | 51.94738 | 10.81616 | 32663 ft | 431 kts | 173° |
| 2026-05-06 16:19 | 51.91789 | 10.82488 | 32902 ft | 431 kts | 173° |
| 2026-05-06 16:19 | 51.88839 | 10.83359 | 33129 ft | 431 kts | 173° |
| 2026-05-06 16:20 | 51.85893 | 10.84226 | 33341 ft | 431 kts | 173° |
| 2026-05-06 16:20 | 51.82943 | 10.85094 | 33553 ft | 431 kts | 173° |
| 2026-05-06 16:20 | 51.80988 | 10.85669 | 33688 ft | 431 kts | 173° |
| 2026-05-06 16:20 | 51.78031 | 10.86535 | 33854 ft | 431 kts | 173° |
| 2026-05-06 16:21 | 51.75072 | 10.87399 | 33987 ft | 433 kts | 173° |
| 2026-05-06 16:21 | 51.72105 | 10.88270 | 34147 ft | 434 kts | 173° |
| 2026-05-06 16:21 | 51.68183 | 10.89566 | 34378 ft | 436 kts | 167° |
| 2026-05-06 16:21 | 51.65328 | 10.91270 | 34555 ft | 441 kts | 158° |
| 2026-05-06 16:22 | 51.63466 | 10.92740 | 34676 ft | 441 kts | 158° |
| 2026-05-06 16:22 | 51.60711 | 10.94928 | 34750 ft | 442 kts | 158° |
| 2026-05-06 16:22 | 51.55189 | 10.99296 | 34771 ft | 442 kts | 158° |
| 2026-05-06 16:23 | 51.49678 | 11.03639 | 34772 ft | 440 kts | 158° |
| 2026-05-06 16:23 | 51.44183 | 11.07933 | 34765 ft | 439 kts | 158° |
| 2026-05-06 16:24 | 51.38716 | 11.12207 | 34768 ft | 435 kts | 158° |
| 2026-05-06 16:24 | 51.33285 | 11.16455 | 34772 ft | 434 kts | 158° |
| 2026-05-06 16:25 | 51.27844 | 11.20681 | 34777 ft | 435 kts | 158° |
| 2026-05-06 16:25 | 51.22402 | 11.24906 | 34768 ft | 435 kts | 158° |
| 2026-05-06 16:26 | 51.16950 | 11.29133 | 34780 ft | 436 kts | 158° |
| 2026-05-06 16:26 | 51.11535 | 11.33324 | 34780 ft | 436 kts | 158° |
| 2026-05-06 16:27 | 51.06077 | 11.37527 | 34779 ft | 436 kts | 159° |
| 2026-05-06 16:27 | 51.00606 | 11.41714 | 34751 ft | 436 kts | 159° |
| 2026-05-06 16:28 | 50.95135 | 11.45899 | 34760 ft | 436 kts | 159° |
| 2026-05-06 16:28 | 50.89664 | 11.50083 | 34770 ft | 437 kts | 159° |
| 2026-05-06 16:29 | 50.84189 | 11.54266 | 34776 ft | 437 kts | 159° |
| 2026-05-06 16:29 | 50.78716 | 11.58434 | 34778 ft | 437 kts | 159° |
| 2026-05-06 16:30 | 50.75979 | 11.60513 | 34634 ft | 437 kts | 159° |
| 2026-05-06 16:30 | 50.74165 | 11.61889 | 34700 ft | 437 kts | 160° |
| 2026-05-06 16:30 | 50.67712 | 11.66754 | 34770 ft | 441 kts | 160° |
| 2026-05-06 16:31 | 50.62168 | 11.70927 | 34776 ft | 442 kts | 160° |
| 2026-05-06 16:31 | 50.56625 | 11.75097 | 34773 ft | 441 kts | 159° |
| 2026-05-06 16:32 | 50.51088 | 11.79266 | 34780 ft | 441 kts | 160° |
| 2026-05-06 16:32 | 50.45583 | 11.83389 | 34788 ft | 441 kts | 160° |
| 2026-05-06 16:33 | 50.39977 | 11.87276 | 34793 ft | 440 kts | 162° |
| 2026-05-06 16:34 | 50.31499 | 11.92844 | 34797 ft | 441 kts | 162° |
| 2026-05-06 16:34 | 50.25856 | 11.96615 | 34794 ft | 441 kts | 161° |
| 2026-05-06 16:35 | 50.20225 | 12.00426 | 34798 ft | 441 kts | 161° |
| 2026-05-06 16:35 | 50.14597 | 12.04222 | 34784 ft | 441 kts | 161° |
| 2026-05-06 16:36 | 50.08963 | 12.07993 | 34784 ft | 441 kts | 161° |
| 2026-05-06 16:36 | 50.03326 | 12.11760 | 34784 ft | 441 kts | 161° |
| 2026-05-06 16:37 | 49.97693 | 12.15515 | 34772 ft | 440 kts | 162° |
| 2026-05-06 16:37 | 49.92062 | 12.19251 | 34777 ft | 440 kts | 162° |
| 2026-05-06 16:38 | 49.86436 | 12.22972 | 34776 ft | 439 kts | 162° |
| 2026-05-06 16:38 | 49.80808 | 12.26685 | 34757 ft | 440 kts | 162° |
| 2026-05-06 16:39 | 49.75148 | 12.30419 | 34720 ft | 444 kts | 161° |
| 2026-05-06 16:39 | 49.69730 | 12.35245 | 34737 ft | 458 kts | 147° |
| 2026-05-06 16:40 | 49.64677 | 12.41185 | 34573 ft | 451 kts | 148° |
| 2026-05-06 16:40 | 49.62186 | 12.44105 | 34000 ft | 448 kts | 148° |
| 2026-05-06 16:40 | 49.59739 | 12.46960 | 33318 ft | 447 kts | 148° |
| 2026-05-06 16:40 | 49.57256 | 12.49847 | 32689 ft | 448 kts | 148° |
| 2026-05-06 16:41 | 49.54762 | 12.52738 | 32068 ft | 449 kts | 148° |
| 2026-05-06 16:41 | 49.52256 | 12.55633 | 31465 ft | 451 kts | 148° |
| 2026-05-06 16:41 | 49.49742 | 12.58535 | 30885 ft | 453 kts | 147° |
| 2026-05-06 16:41 | 49.47221 | 12.61449 | 30290 ft | 454 kts | 147° |
| 2026-05-06 16:42 | 49.44691 | 12.64376 | 29696 ft | 456 kts | 147° |
| 2026-05-06 16:42 | 49.42119 | 12.67229 | 29045 ft | 455 kts | 152° |
| 2026-05-06 16:42 | 49.39330 | 12.69485 | 28369 ft | 451 kts | 161° |
| 2026-05-06 16:42 | 49.36358 | 12.70902 | 27366 ft | 446 kts | 172° |
| 2026-05-06 16:43 | 49.33285 | 12.71313 | 26304 ft | 443 kts | 184° |
| 2026-05-06 16:43 | 49.30228 | 12.70743 | 25214 ft | 443 kts | 194° |
| 2026-05-06 16:43 | 49.27304 | 12.69266 | 24141 ft | 444 kts | 205° |
| 2026-05-06 16:43 | 49.24531 | 12.67255 | 23377 ft | 439 kts | 206° |
| 2026-05-06 16:44 | 49.21780 | 12.65291 | 22509 ft | 434 kts | 205° |
| 2026-05-06 16:44 | 49.19052 | 12.63364 | 21668 ft | 430 kts | 205° |
| 2026-05-06 16:44 | 49.16349 | 12.61456 | 20865 ft | 425 kts | 205° |
| 2026-05-06 16:44 | 49.13681 | 12.59569 | 20076 ft | 421 kts | 205° |
| 2026-05-06 16:45 | 49.11038 | 12.57693 | 19275 ft | 417 kts | 205° |
| 2026-05-06 16:45 | 49.08426 | 12.55830 | 18494 ft | 413 kts | 205° |
| 2026-05-06 16:45 | 49.05835 | 12.53981 | 17679 ft | 409 kts | 205° |
| 2026-05-06 16:45 | 49.03268 | 12.52151 | 16821 ft | 405 kts | 205° |
| 2026-05-06 16:46 | 49.00728 | 12.50335 | 16007 ft | 401 kts | 205° |
| 2026-05-06 16:46 | 48.98217 | 12.48535 | 15232 ft | 397 kts | 205° |
| 2026-05-06 16:46 | 48.95726 | 12.46749 | 14487 ft | 394 kts | 205° |
| 2026-05-06 16:46 | 48.93257 | 12.44982 | 13781 ft | 390 kts | 206° |
| 2026-05-06 16:47 | 48.90813 | 12.43234 | 13010 ft | 387 kts | 205° |
| 2026-05-06 16:47 | 48.88389 | 12.41502 | 12228 ft | 383 kts | 205° |
| 2026-05-06 16:47 | 48.85987 | 12.39794 | 11475 ft | 379 kts | 205° |
| 2026-05-06 16:47 | 48.83612 | 12.38109 | 10787 ft | 375 kts | 205° |
| 2026-05-06 16:48 | 48.81258 | 12.36444 | 10124 ft | 371 kts | 205° |
| 2026-05-06 16:48 | 48.78964 | 12.34892 | 9982 ft | 351 kts | 202° |
| 2026-05-06 16:48 | 48.76795 | 12.33416 | 9855 ft | 332 kts | 204° |
| 2026-05-06 16:48 | 48.74693 | 12.32362 | 9733 ft | 314 kts | 188° |
| 2026-05-06 16:49 | 48.72573 | 12.32039 | 9610 ft | 299 kts | 185° |
| 2026-05-06 16:49 | 48.70540 | 12.31966 | 9480 ft | 286 kts | 180° |
| 2026-05-06 16:49 | 48.68587 | 12.32009 | 9257 ft | 277 kts | 180° |
| 2026-05-06 16:49 | 48.66672 | 12.32063 | 8888 ft | 274 kts | 179° |
| 2026-05-06 16:50 | 48.64771 | 12.32113 | 8547 ft | 272 kts | 180° |
| 2026-05-06 16:50 | 48.62894 | 12.32002 | 8211 ft | 268 kts | 184° |
| 2026-05-06 16:50 | 48.61046 | 12.31790 | 7893 ft | 264 kts | 187° |
| 2026-05-06 16:50 | 48.59320 | 12.30985 | 7626 ft | 258 kts | 204° |
| 2026-05-06 16:51 | 48.57709 | 12.29837 | 7351 ft | 254 kts | 205° |
| 2026-05-06 16:51 | 48.56138 | 12.28668 | 7088 ft | 250 kts | 206° |
| 2026-05-06 16:51 | 48.54586 | 12.27512 | 6820 ft | 248 kts | 206° |
| 2026-05-06 16:51 | 48.53047 | 12.26368 | 6552 ft | 245 kts | 206° |
| 2026-05-06 16:52 | 48.51523 | 12.25237 | 6295 ft | 243 kts | 206° |
| 2026-05-06 16:52 | 48.50012 | 12.24117 | 6024 ft | 241 kts | 206° |
| 2026-05-06 16:52 | 48.48519 | 12.23014 | 5744 ft | 238 kts | 205° |
| 2026-05-06 16:52 | 48.47051 | 12.21893 | 5463 ft | 235 kts | 211° |
| 2026-05-06 16:53 | 48.45696 | 12.20554 | 5186 ft | 232 kts | 214° |
| 2026-05-06 16:53 | 48.44375 | 12.19169 | 4999 ft | 231 kts | 214° |
| 2026-05-06 16:53 | 48.43092 | 12.17817 | 4998 ft | 219 kts | 214° |
| 2026-05-06 16:53 | 48.41859 | 12.16507 | 4996 ft | 216 kts | 214° |
| 2026-05-06 16:54 | 48.40638 | 12.15204 | 4992 ft | 215 kts | 214° |
| 2026-05-06 16:54 | 48.39546 | 12.13676 | 4993 ft | 216 kts | 233° |
| 2026-05-06 16:54 | 48.38914 | 12.11617 | 5019 ft | 220 kts | 257° |
| 2026-05-06 16:54 | 48.38714 | 12.09327 | 4896 ft | 221 kts | 263° |
| 2026-05-06 16:55 | 48.38554 | 12.07046 | 4644 ft | 216 kts | 263° |
| 2026-05-06 16:55 | 48.38394 | 12.04850 | 4369 ft | 206 kts | 262° |
| 2026-05-06 16:55 | 48.38238 | 12.02746 | 4096 ft | 198 kts | 262° |
| 2026-05-06 16:55 | 48.38091 | 12.00723 | 3841 ft | 191 kts | 262° |
| 2026-05-06 16:56 | 48.37945 | 11.98773 | 3582 ft | 183 kts | 263° |
| 2026-05-06 16:56 | 48.37804 | 11.96926 | 3338 ft | 172 kts | 263° |
| 2026-05-06 16:56 | 48.37673 | 11.95188 | 3152 ft | 164 kts | 263° |
| 2026-05-06 16:56 | 48.37547 | 11.93499 | 2937 ft | 161 kts | 263° |
| 2026-05-06 16:57 | 48.37427 | 11.91886 | 2706 ft | 154 kts | 263° |
| 2026-05-06 16:57 | 48.37307 | 11.90302 | 2491 ft | 151 kts | 264° |
| 2026-05-06 16:57 | 48.37190 | 11.88752 | 2332 ft | 147 kts | 263° |
| 2026-05-06 16:57 | 48.37076 | 11.87246 | 2138 ft | 142 kts | 264° |
| 2026-05-06 16:58 | 48.36967 | 11.85788 | 1965 ft | 139 kts | 263° |
| 2026-05-06 16:58 | 48.36856 | 11.84346 | 1789 ft | 139 kts | 263° |
| 2026-05-06 16:58 | 48.36750 | 11.82906 | 1624 ft | 138 kts | 263° |
| 2026-05-06 16:58 | 48.36638 | 11.81466 | 1497 ft | 134 kts | 263° |
| 2026-05-06 16:59 | 48.36546 | 11.80267 | 1485 ft | 93 kts | 263° |
| 2026-05-06 16:59 | 48.36492 | 11.79562 | 1485 ft | 43 kts | 263° |
| 2026-05-06 16:59 | 48.36463 | 11.79181 | 1481 ft | 27 kts | 263° |
| 2026-05-06 16:59 | 48.36406 | 11.78922 | 1476 ft | 26 kts | 245° |
| 2026-05-06 17:00 | 48.36327 | 11.78760 | 1473 ft | 16 kts | 233° |
| 2026-05-06 17:00 | 48.36259 | 11.78622 | 1481 ft | 17 kts | 233° |
| 2026-05-06 17:00 | 48.36192 | 11.78499 | 1485 ft | 16 kts | 217° |
| 2026-05-06 17:00 | 48.36084 | 11.78486 | 1482 ft | 15 kts | 174° |
| 2026-05-06 17:01 | 48.36034 | 11.78555 | 1476 ft | 11 kts | 89° |
| 2026-05-06 17:01 | 48.36044 | 11.78681 | 1485 ft | 13 kts | 83° |
| 2026-05-06 17:01 | 48.36055 | 11.78825 | 1481 ft | 15 kts | 84° |
| 2026-05-06 17:01 | 48.36067 | 11.78980 | 1481 ft | 14 kts | 83° |
| 2026-05-06 17:02 | 48.36078 | 11.79124 | 1475 ft | 14 kts | 83° |
| 2026-05-06 17:02 | 48.36088 | 11.79253 | 1477 ft | 11 kts | 84° |
| 2026-05-06 17:02 | 48.36044 | 11.79326 | 1473 ft | 12 kts | 170° |
| 2026-05-06 17:02 | 48.35971 | 11.79336 | 1475 ft | 9 kts | 174° |
| 2026-05-06 17:03 | 48.35911 | 11.79375 | 1482 ft | 11 kts | 129° |
| 2026-05-06 17:03 | 48.35895 | 11.79487 | 1485 ft | 12 kts | 115° |
| 2026-05-06 17:03 | 48.35820 | 11.79524 | 1481 ft | 11 kts | 174° |
| 2026-05-06 17:03 | 48.35749 | 11.79538 | 1483 ft | 9 kts | 172° |
| 2026-05-06 17:04 | 48.35686 | 11.79551 | 1476 ft | 8 kts | 173° |
| 2026-05-06 17:04 | 48.35648 | 11.79557 | 1485 ft | 2 kts | 174° |
| 2026-05-06 17:04 | 48.35629 | 11.79560 | 1478 ft | 4 kts | 174° |
| 2026-05-06 17:04 | 48.35598 | 11.79557 | 1482 ft | 5 kts | 197° |
| 2026-05-06 17:05 | 48.35574 | 11.79512 | 1473 ft | 6 kts | 250° |
| 2026-05-06 17:05 | 48.35569 | 11.79439 | 1485 ft | 7 kts | 271° |
| 2026-05-06 17:05 | 48.35566 | 11.79356 | 1485 ft | 8 kts | 262° |
| 2026-05-06 17:05 | 48.35560 | 11.79296 | 1475 ft | 5 kts | 263° |
| 2026-05-06 17:06 | 48.35560 | 11.79287 | 1475 ft | 0 kts | 263° |